createdAt,value
2018-02-04T00:01:00.868Z,79.20
2018-02-04T00:03:27.061Z,79.50
2018-02-04T00:05:53.279Z,79.40
2018-02-04T00:08:20.383Z,79.10
2018-02-04T00:10:47.592Z,79.50
2018-02-04T00:13:14.347Z,79.00
2018-02-04T00:15:41.342Z,78.80
2018-02-04T00:18:07.519Z,78.60
2018-02-04T00:20:34.638Z,78.70
2018-02-04T00:23:01.566Z,79.50
2018-02-04T00:25:28.119Z,79.10
2018-02-04T00:27:54.350Z,80.00
2018-02-04T00:30:22.127Z,80.90
2018-02-04T00:32:48.341Z,80.70
2018-02-04T00:35:15.343Z,81.10
2018-02-04T00:37:41.621Z,80.70
2018-02-04T00:40:07.782Z,81.20
2018-02-04T00:42:34.065Z,81.20
2018-02-04T00:45:01.018Z,81.40
2018-02-04T00:47:28.303Z,81.40
2018-02-04T00:49:54.520Z,80.80
2018-02-04T00:52:22.042Z,81.10
2018-02-04T01:04:38.309Z,81.00
2018-02-04T01:07:05.094Z,81.20
2018-02-04T01:09:31.359Z,81.20
2018-02-04T01:11:57.817Z,81.10
2018-02-04T01:14:24.076Z,81.20
2018-02-04T01:16:51.191Z,81.20
2018-02-04T01:19:17.351Z,81.40
2018-02-04T01:21:45.292Z,82.10
2018-02-04T01:24:11.642Z,82.10
2018-02-04T01:26:38.569Z,82.20
2018-02-04T01:29:04.761Z,82.10
2018-02-04T01:31:30.986Z,82.30
2018-02-04T01:33:57.177Z,82.40
2018-02-04T01:36:24.106Z,82.50
2018-02-04T01:38:51.139Z,82.30
2018-02-04T01:41:20.477Z,82.00
2018-02-04T01:43:46.679Z,82.00
2018-02-04T01:46:13.635Z,82.60
2018-02-04T01:48:40.639Z,83.30
2018-02-04T01:51:07.649Z,83.10
2018-02-04T01:53:34.161Z,82.70
2018-02-04T01:56:01.408Z,83.10
2018-02-04T01:58:27.597Z,83.30
2018-02-04T02:00:53.765Z,83.00
2018-02-04T02:03:19.938Z,83.10
2018-02-04T02:05:46.145Z,83.50
2018-02-04T02:08:13.124Z,84.20
2018-02-04T02:10:39.465Z,84.20
2018-02-04T02:13:05.711Z,84.40
2018-02-04T02:15:31.952Z,84.00
2018-02-04T02:17:58.397Z,83.90
2018-02-04T02:20:25.422Z,84.50
2018-02-04T02:22:52.070Z,84.00
2018-02-04T02:25:18.261Z,84.40
2018-02-04T02:27:44.462Z,83.50
2018-02-04T02:30:13.629Z,83.60
2018-02-04T02:32:39.852Z,84.10
2018-02-04T02:35:06.037Z,83.30
2018-02-04T02:37:32.662Z,83.20
2018-02-04T02:39:59.509Z,83.30
2018-02-04T02:42:25.741Z,82.70
2018-02-04T02:44:51.927Z,82.60
2018-02-04T02:47:18.147Z,82.40
2018-02-04T02:49:45.147Z,82.50
2018-02-04T02:52:11.418Z,82.30
2018-02-04T02:54:37.652Z,82.80
2018-02-04T02:57:03.866Z,83.00
2018-02-04T02:59:30.982Z,83.40
2018-02-04T03:01:57.198Z,83.70
2018-02-04T03:04:24.260Z,83.70
2018-02-04T03:06:50.457Z,83.60
2018-02-04T03:09:17.436Z,84.80
2018-02-04T03:11:43.631Z,84.30
2018-02-04T03:14:10.574Z,84.20
2018-02-04T03:16:37.514Z,84.30
2018-02-04T03:19:03.942Z,84.30
2018-02-04T03:21:31.096Z,83.90
2018-02-04T03:23:57.275Z,83.40
2018-02-04T03:26:23.907Z,83.30
2018-02-04T03:28:50.102Z,83.80
2018-02-04T03:31:17.128Z,84.00
2018-02-04T03:46:43.377Z,85.80
2018-02-04T03:49:10.253Z,86.60
2018-02-04T03:51:36.448Z,86.10
2018-02-04T03:54:03.374Z,86.60
2018-02-04T03:56:29.535Z,86.30
2018-02-04T03:58:55.734Z,86.20
2018-02-04T04:01:22.039Z,86.30
2018-02-04T04:03:48.249Z,86.80
2018-02-04T04:06:14.948Z,87.00
2018-02-04T04:08:41.898Z,87.50
2018-02-04T04:11:10.582Z,87.50
2018-02-04T04:13:37.531Z,87.70
2018-02-04T04:16:04.435Z,87.10
2018-02-04T04:18:31.917Z,87.10
2018-02-04T04:20:59.447Z,87.30
2018-02-04T04:23:25.592Z,87.30
2018-02-04T04:25:52.426Z,87.10
2018-02-04T04:28:18.593Z,87.50
2018-02-04T04:40:34.796Z,86.80
2018-02-04T04:43:02.502Z,86.20
2018-02-04T04:45:29.070Z,86.30
2018-02-04T04:47:55.234Z,86.90
2018-02-04T04:50:21.781Z,86.70
2018-02-04T04:52:48.010Z,85.50
2018-02-04T04:55:14.157Z,85.80
2018-02-04T04:57:41.183Z,85.50
2018-02-04T05:00:07.419Z,85.10
2018-02-04T05:02:34.117Z,86.00
2018-02-04T05:05:00.511Z,86.30
2018-02-04T05:07:26.710Z,86.30
2018-02-04T05:09:53.292Z,85.90
2018-02-04T05:12:21.475Z,87.20
2018-02-04T05:14:48.421Z,86.60
2018-02-04T05:17:16.650Z,87.20
2018-02-04T05:19:43.660Z,87.20
2018-02-04T05:22:10.783Z,87.00
2018-02-04T05:24:37.691Z,87.50
2018-02-04T05:27:04.106Z,87.40
2018-02-04T05:29:30.298Z,86.80
2018-02-04T05:31:57.261Z,87.30
2018-02-04T05:34:23.466Z,87.30
2018-02-04T05:36:50.390Z,87.50
2018-02-04T05:39:16.638Z,87.60
2018-02-04T05:41:43.543Z,88.10
2018-02-04T05:44:10.012Z,87.60
2018-02-04T05:46:36.964Z,87.90
2018-02-04T05:49:03.429Z,87.90
2018-02-04T05:51:29.641Z,87.60
2018-02-04T05:53:55.823Z,88.00
2018-02-04T05:56:22.822Z,88.10
2018-02-04T05:58:49.789Z,87.40
2018-02-04T06:01:16.011Z,87.40
2018-02-04T06:03:42.230Z,87.40
2018-02-04T06:08:36.343Z,87.30
2018-02-04T06:11:02.534Z,87.00
2018-02-04T06:13:29.474Z,86.90
2018-02-04T06:25:41.458Z,86.30
2018-02-04T06:28:08.491Z,86.30
2018-02-04T06:30:35.389Z,87.10
2018-02-04T06:33:02.915Z,86.60
2018-02-04T06:35:30.696Z,87.40
2018-02-04T06:37:56.846Z,87.50
2018-02-04T06:40:23.035Z,86.80
2018-02-04T06:42:51.556Z,87.40
2018-02-04T06:45:17.821Z,86.50
2018-02-04T06:47:44.718Z,87.50
2018-02-04T06:50:10.983Z,87.30
2018-02-04T06:52:37.900Z,88.30
2018-02-04T06:55:05.610Z,87.70
2018-02-04T06:57:32.547Z,88.20
2018-02-04T06:59:58.869Z,88.20
2018-02-04T07:02:25.337Z,88.10
2018-02-04T07:04:52.347Z,88.50
2018-02-04T07:07:19.402Z,87.80
2018-02-04T07:09:45.599Z,87.50
2018-02-04T07:12:11.818Z,87.50
2018-02-04T07:14:37.953Z,87.40
2018-02-04T07:17:04.179Z,87.30
2018-02-04T07:19:30.365Z,87.90
2018-02-04T07:21:57.325Z,87.20
2018-02-04T07:24:23.504Z,86.60
2018-02-04T07:26:49.769Z,87.00
2018-02-04T07:39:01.745Z,84.90
2018-02-04T07:41:27.956Z,84.20
2018-02-04T07:43:55.298Z,83.50
2018-02-04T07:46:21.538Z,82.80
2018-02-04T07:48:48.526Z,83.10
2018-02-04T07:51:15.719Z,82.50
2018-02-04T08:03:31.916Z,81.50
2018-02-04T08:05:58.872Z,81.60
2018-02-04T08:08:25.717Z,81.60
2018-02-04T08:10:51.906Z,81.10
2018-02-04T08:13:18.063Z,81.10
2018-02-04T08:15:46.009Z,80.70
2018-02-04T08:18:12.197Z,80.20
2018-02-04T08:20:38.414Z,80.60
2018-02-04T08:23:05.462Z,80.80
2018-02-04T08:25:31.693Z,80.80
2018-02-04T08:27:57.943Z,81.10
2018-02-04T08:30:24.650Z,81.00
2018-02-04T08:32:50.823Z,80.90
2018-02-04T08:35:17.015Z,80.70
2018-02-04T08:37:43.242Z,80.80
2018-02-04T08:40:11.474Z,80.40
2018-02-04T08:42:37.744Z,78.50
2018-02-04T08:45:03.978Z,77.50
2018-02-04T08:47:30.220Z,77.00
2018-02-04T08:49:57.752Z,76.50
2018-02-04T08:52:23.999Z,76.60
2018-02-04T08:54:51.083Z,76.50
2018-02-04T08:57:17.657Z,76.30
2018-02-04T08:59:44.615Z,77.00
2018-02-04T09:02:11.816Z,75.90
2018-02-04T09:04:38.040Z,76.10
2018-02-04T09:07:04.218Z,76.10
2018-02-04T09:09:30.418Z,75.50
2018-02-04T09:11:58.945Z,74.90
2018-02-04T09:14:25.128Z,74.10
2018-02-04T09:16:51.302Z,74.80
2018-02-04T09:19:17.559Z,75.50
2018-02-04T09:21:43.743Z,76.10
2018-02-04T09:24:09.898Z,76.40
2018-02-04T09:26:36.184Z,74.70
2018-02-04T09:29:03.097Z,74.70
2018-02-04T09:31:29.338Z,73.90
2018-02-04T09:33:55.584Z,74.80
2018-02-04T09:36:22.534Z,74.30
2018-02-04T09:38:50.306Z,74.10
2018-02-04T09:41:17.290Z,74.10
2018-02-04T09:43:43.470Z,73.60
2018-02-04T09:46:10.466Z,74.00
2018-02-04T09:48:37.528Z,73.60
2018-02-04T09:51:04.548Z,73.00
2018-02-04T09:53:30.781Z,73.40
2018-02-04T09:55:56.996Z,73.90
2018-02-04T09:58:23.260Z,73.80
2018-02-04T10:00:49.473Z,74.40
2018-02-04T10:03:15.682Z,74.00
2018-02-04T10:05:41.920Z,73.80
2018-02-04T10:08:08.155Z,74.60
2018-02-04T10:10:34.325Z,74.40
2018-02-04T10:13:00.501Z,74.60
2018-02-04T10:15:26.910Z,74.40
2018-02-04T10:17:54.865Z,74.70
2018-02-04T10:20:21.100Z,73.10
2018-02-04T10:22:47.319Z,72.80
2018-02-04T10:25:13.561Z,72.80
2018-02-04T10:37:31.256Z,72.70
2018-02-04T10:39:58.268Z,73.40
2018-02-04T10:42:26.705Z,72.90
2018-02-04T10:54:45.549Z,71.70
2018-02-04T10:57:12.700Z,71.30
2018-02-04T10:59:38.963Z,71.30
2018-02-04T11:02:05.240Z,71.50
2018-02-04T11:04:31.508Z,72.10
2018-02-04T11:06:58.299Z,72.00
2018-02-04T11:09:25.242Z,72.10
2018-02-04T11:11:53.383Z,71.60
2018-02-04T11:14:20.975Z,71.10
2018-02-04T11:16:48.316Z,71.30
2018-02-04T11:19:15.269Z,71.40
2018-02-04T11:21:45.038Z,71.70
2018-02-04T11:24:12.210Z,71.70
2018-02-04T11:26:38.446Z,71.10
2018-02-04T11:29:05.091Z,71.60
2018-02-04T11:31:31.412Z,72.00
2018-02-04T11:33:58.121Z,71.10
2018-02-04T11:36:24.339Z,71.30
2018-02-04T11:38:51.605Z,71.40
2018-02-04T11:41:19.748Z,72.40
2018-02-04T11:43:47.683Z,72.60
2018-02-04T11:46:15.078Z,71.90
2018-02-04T11:48:43.494Z,72.20
2018-02-04T12:01:00.519Z,67.70
2018-02-04T12:03:27.685Z,67.70
2018-02-04T12:05:55.687Z,67.80
2018-02-04T12:08:21.909Z,67.70
2018-02-04T12:10:48.121Z,67.70
2018-02-04T12:13:16.338Z,66.70
2018-02-04T12:15:43.734Z,66.30
2018-02-04T12:18:11.549Z,66.70
2018-02-04T12:20:37.783Z,67.40
2018-02-04T12:23:04.824Z,67.90
2018-02-04T12:25:31.135Z,67.20
2018-02-04T12:27:58.086Z,68.50
2018-02-04T12:30:24.295Z,66.60
2018-02-04T12:32:51.356Z,66.20
2018-02-04T12:35:18.369Z,67.50
2018-02-04T12:37:44.716Z,67.90
2018-02-04T12:40:11.710Z,68.50
2018-02-04T12:42:38.014Z,67.40
2018-02-04T12:45:05.178Z,67.40
2018-02-04T12:47:31.395Z,66.70
2018-02-04T12:49:57.648Z,66.50
2018-02-04T12:52:24.575Z,66.10
2018-02-04T12:54:52.963Z,65.20
2018-02-04T12:57:20.196Z,65.00
2018-02-04T12:59:46.776Z,65.40
2018-02-04T13:02:14.849Z,65.30
2018-02-04T13:04:41.167Z,65.00
2018-02-04T13:07:08.050Z,65.00
2018-02-04T13:09:34.268Z,64.80
2018-02-04T13:12:00.513Z,65.10
2018-02-04T13:14:26.715Z,65.60
2018-02-04T13:16:52.958Z,66.10
2018-02-04T13:19:19.138Z,65.40
2018-02-04T13:21:45.359Z,65.80
2018-02-04T13:24:11.532Z,64.90
2018-02-04T13:26:38.462Z,64.00
2018-02-04T13:29:04.818Z,64.10
2018-02-04T13:31:31.558Z,63.00
2018-02-04T13:33:57.831Z,62.70
2018-02-04T13:36:25.671Z,63.50
2018-02-04T13:38:51.867Z,62.40
2018-02-04T13:41:18.633Z,61.00
2018-02-04T13:43:46.565Z,61.50
2018-02-04T13:46:12.765Z,61.10
2018-02-04T13:48:40.077Z,59.30
2018-02-04T13:51:06.284Z,59.60
2018-02-04T14:03:22.511Z,59.20
2018-02-04T14:05:49.485Z,59.10
2018-02-04T14:08:15.661Z,59.40
2018-02-04T14:10:41.895Z,58.90
2018-02-04T14:13:08.842Z,60.40
2018-02-04T14:15:38.739Z,60.50
2018-02-04T14:18:05.328Z,60.50
2018-02-04T14:20:33.879Z,60.40
2018-02-04T14:23:00.416Z,60.50
2018-02-04T14:25:26.742Z,60.50
2018-02-04T14:27:52.969Z,60.50
2018-02-04T14:30:20.180Z,60.60
2018-02-04T14:32:46.728Z,60.50
2018-02-04T14:35:12.982Z,60.50
2018-02-04T14:37:39.241Z,60.50
2018-02-04T14:40:07.397Z,62.20
2018-02-04T14:42:35.014Z,61.80
2018-02-04T14:45:02.766Z,62.20
2018-02-04T14:47:29.158Z,62.10
2018-02-04T14:49:57.259Z,62.30
2018-02-04T14:52:24.233Z,62.20
2018-02-04T14:54:50.492Z,62.60
2018-02-04T14:57:16.706Z,63.00
2018-02-04T14:59:43.110Z,63.10
2018-02-04T15:02:09.698Z,63.10
2018-02-04T15:04:36.854Z,63.50
2018-02-04T15:07:03.774Z,63.90
2018-02-04T15:09:30.899Z,64.20
2018-02-04T15:11:57.643Z,64.20
2018-02-04T15:14:24.716Z,64.20
2018-02-04T15:16:50.901Z,64.00
2018-02-04T15:19:17.140Z,64.30
2018-02-04T15:21:45.040Z,64.50
2018-02-04T15:24:12.564Z,64.60
2018-02-04T15:26:42.736Z,64.90
2018-02-04T15:29:09.011Z,65.40
2018-02-04T15:31:35.214Z,65.10
2018-02-04T15:34:03.714Z,65.80
2018-02-04T15:36:30.044Z,65.50
2018-02-04T15:38:57.310Z,66.10
2018-02-04T15:41:23.546Z,66.00
2018-02-04T15:43:51.489Z,66.50
2018-02-04T15:46:19.450Z,66.90
2018-02-04T15:48:47.385Z,67.10
2018-02-04T15:51:14.062Z,67.20
2018-02-04T15:53:41.412Z,67.50
2018-02-04T15:56:08.541Z,68.00
2018-02-04T15:58:35.042Z,67.50
2018-02-04T16:01:02.259Z,67.50
2018-02-04T16:03:29.367Z,67.60
2018-02-04T16:05:57.322Z,67.50
2018-02-04T16:08:27.285Z,67.80
2018-02-04T16:10:54.374Z,67.50
2018-02-04T16:13:22.355Z,67.70
2018-02-04T16:15:48.567Z,68.60
2018-02-04T16:27:59.909Z,69.00
2018-02-04T16:30:26.225Z,69.50
2018-02-04T16:32:53.501Z,69.80
2018-02-04T16:35:20.515Z,69.90
2018-02-04T16:37:48.157Z,69.80
2018-02-04T16:40:15.374Z,69.90
2018-02-04T16:42:43.698Z,69.80
2018-02-04T16:45:09.898Z,70.20
2018-02-04T16:47:36.628Z,70.10
2018-02-04T16:50:03.832Z,70.10
2018-02-04T16:52:30.842Z,70.50
2018-02-04T16:54:57.096Z,70.10
2018-02-04T16:57:23.351Z,70.10
2018-02-04T16:59:51.320Z,70.40
2018-02-04T17:02:17.938Z,70.00
2018-02-04T17:04:45.729Z,70.30
2018-02-04T17:07:14.765Z,70.80
2018-02-04T17:09:40.954Z,70.50
2018-02-04T17:12:07.172Z,70.30
2018-02-04T17:24:19.209Z,70.80
2018-02-04T17:26:47.157Z,70.90
2018-02-04T17:29:14.033Z,70.10
2018-02-04T17:34:08.943Z,70.40
2018-02-04T17:36:35.630Z,70.40
2018-02-04T17:39:03.063Z,70.60
2018-02-04T17:41:30.414Z,70.60
2018-02-04T17:43:58.059Z,71.10
2018-02-04T17:46:24.340Z,70.50
2018-02-04T17:48:52.135Z,70.70
2018-02-04T17:51:19.838Z,70.90
2018-02-04T17:53:47.904Z,71.20
2018-02-04T17:56:14.920Z,71.10
2018-02-04T17:58:42.763Z,70.60
2018-02-04T18:01:10.177Z,70.70
2018-02-04T18:03:37.728Z,71.20
2018-02-04T18:06:04.679Z,71.50
2018-02-04T18:08:32.267Z,70.80
2018-02-04T18:10:58.514Z,70.80
2018-02-04T18:13:24.790Z,70.60
2018-02-04T18:15:51.583Z,71.00
2018-02-04T18:18:18.595Z,71.00
2018-02-04T18:20:45.230Z,70.60
2018-02-04T18:23:13.190Z,71.10
2018-02-04T18:25:40.004Z,70.80
2018-02-04T18:28:06.240Z,70.40
2018-02-04T18:30:32.450Z,70.40
2018-02-04T18:32:58.698Z,70.80
2018-02-04T18:35:26.159Z,70.40
2018-02-04T18:37:52.382Z,70.90
2018-02-04T18:40:19.176Z,70.70
2018-02-04T18:42:46.207Z,71.20
2018-02-04T18:45:13.237Z,71.00
2018-02-04T18:47:39.421Z,71.00
2018-02-04T18:50:05.778Z,70.70
2018-02-04T18:52:32.235Z,70.40
2018-02-04T18:54:58.781Z,70.50
2018-02-04T18:57:26.076Z,70.50
2018-02-04T18:59:54.003Z,70.50
2018-02-04T19:02:20.579Z,70.40
2018-02-04T19:04:46.806Z,71.00
2018-02-04T19:07:13.006Z,70.70
2018-02-04T19:09:40.014Z,70.90
2018-02-04T19:12:06.256Z,70.80
2018-02-04T19:14:32.447Z,70.60
2018-02-04T19:16:59.652Z,71.20
2018-02-04T19:19:25.955Z,70.70
2018-02-04T19:21:52.132Z,70.70
2018-02-04T19:24:19.108Z,71.30
2018-02-04T19:26:45.369Z,70.80
2018-02-04T19:29:11.557Z,71.20
2018-02-04T19:31:37.783Z,71.00
2018-02-04T19:34:04.084Z,70.90
2018-02-04T19:36:32.908Z,71.30
2018-02-04T19:39:00.977Z,70.60
2018-02-04T19:41:27.197Z,70.20
2018-02-04T19:43:54.199Z,70.80
2018-02-04T19:46:23.943Z,71.10
2018-02-04T19:48:50.990Z,71.10
2018-02-04T19:51:18.049Z,70.90
2018-02-04T19:53:44.328Z,70.20
2018-02-04T19:56:11.337Z,70.40
2018-02-04T19:58:38.538Z,70.20
2018-02-04T20:01:06.928Z,69.80
2018-02-04T20:03:34.081Z,70.00
2018-02-04T20:06:00.835Z,70.20
2018-02-04T20:08:27.878Z,70.20
2018-02-04T20:10:54.834Z,70.50
2018-02-04T20:13:21.824Z,70.50
2018-02-04T20:15:48.044Z,69.80
2018-02-04T20:18:17.139Z,69.90
2018-02-04T20:20:44.029Z,69.80
2018-02-04T20:23:12.226Z,69.80
2018-02-04T20:25:38.916Z,69.50
2018-02-04T20:28:05.154Z,69.50
2018-02-04T20:40:21.409Z,69.60
2018-02-04T20:42:47.666Z,69.70
2018-02-04T20:45:13.931Z,69.70
2018-02-04T20:57:25.272Z,68.90
2018-02-04T20:59:51.514Z,68.90
2018-02-04T21:02:17.806Z,69.20
2018-02-04T21:04:44.075Z,69.00
2018-02-04T21:07:11.896Z,68.90
2018-02-04T21:09:38.146Z,69.30
2018-02-04T21:12:04.380Z,69.00
2018-02-04T21:14:35.264Z,69.50
2018-02-04T21:17:01.552Z,69.00
2018-02-04T21:19:28.516Z,70.10
2018-02-04T21:21:54.770Z,69.30
2018-02-04T21:24:21.059Z,69.00
2018-02-04T21:26:48.653Z,69.60
2018-02-04T21:29:14.876Z,69.30
2018-02-04T21:31:42.134Z,69.40
2018-02-04T21:34:08.319Z,69.50
2018-02-04T21:36:35.399Z,70.00
2018-02-04T21:39:01.923Z,69.40
2018-02-04T21:41:29.929Z,70.30
2018-02-04T21:43:56.104Z,69.80
2018-02-04T21:46:22.324Z,70.00
2018-02-04T21:48:48.537Z,69.80
2018-02-04T21:51:14.725Z,70.20
2018-02-04T21:53:41.924Z,70.00
2018-02-04T21:56:08.189Z,70.20
2018-02-04T22:08:25.892Z,70.20
2018-02-04T22:10:52.870Z,69.70
2018-02-04T22:13:19.075Z,69.50
2018-02-04T22:15:47.488Z,69.80
2018-02-04T22:18:14.351Z,69.80
2018-02-04T22:20:40.547Z,70.20
2018-02-04T22:23:06.768Z,70.10
2018-02-04T22:25:34.538Z,69.80
2018-02-04T22:28:00.753Z,69.80
2018-02-04T22:30:27.710Z,69.80
2018-02-04T22:32:53.947Z,69.80
2018-02-04T22:35:21.140Z,70.50
2018-02-04T22:37:47.358Z,70.80
2018-02-04T22:40:16.267Z,71.10
2018-02-04T22:42:44.637Z,72.00
2018-02-04T22:45:12.474Z,71.20
2018-02-04T22:47:39.046Z,71.00
2018-02-04T22:50:06.781Z,71.30
2018-02-04T23:02:23.081Z,70.80
2018-02-04T23:04:50.353Z,71.60
2018-02-04T23:07:18.237Z,71.50
2018-02-04T23:09:46.338Z,71.10
2018-02-04T23:12:13.333Z,70.70
2018-02-04T23:14:40.286Z,71.20
2018-02-04T23:17:08.077Z,70.30
2018-02-04T23:19:34.257Z,70.20
2018-02-04T23:22:00.468Z,70.40
2018-02-04T23:24:27.630Z,70.20
2018-02-04T23:26:56.498Z,69.10
2018-02-04T23:29:24.548Z,69.90
2018-02-04T23:31:50.757Z,70.00
2018-02-04T23:34:17.278Z,69.50
2018-02-04T23:36:45.204Z,70.30
2018-02-04T23:39:11.366Z,70.30
2018-02-04T23:41:38.694Z,71.50
2018-02-04T23:44:05.049Z,69.60
2018-02-04T23:46:31.231Z,69.30
2018-02-04T23:48:57.749Z,69.80
2018-02-04T23:53:54.900Z,69.30
2018-02-04T23:56:21.823Z,70.60
2018-02-04T23:58:48.254Z,69.70
